createdAt,value
2022-09-16T00:00:49.046Z,959.20
2022-09-16T00:01:49.085Z,959.15
2022-09-16T00:02:48.999Z,959.20
2022-09-16T00:03:48.952Z,959.18
2022-09-16T00:04:48.942Z,959.11
2022-09-16T00:05:48.927Z,959.12
2022-09-16T00:06:48.923Z,959.14
2022-09-16T00:07:48.945Z,959.15
2022-09-16T00:08:48.996Z,959.08
2022-09-16T00:09:48.881Z,959.06
2022-09-16T00:10:48.886Z,959.06
2022-09-16T00:11:48.865Z,959.04
2022-09-16T00:12:48.860Z,959.05
2022-09-16T00:13:48.880Z,959.07
2022-09-16T00:14:48.850Z,959.01
2022-09-16T00:15:48.816Z,958.99
2022-09-16T00:16:48.801Z,959.00
2022-09-16T00:17:48.829Z,959.03
2022-09-16T00:18:48.801Z,959.07
2022-09-16T00:19:48.776Z,959.05
2022-09-16T00:20:48.755Z,959.05
2022-09-16T00:21:48.755Z,959.03
2022-09-16T00:22:48.740Z,959.05
2022-09-16T00:23:48.747Z,959.02
2022-09-16T00:24:48.737Z,958.99
2022-09-16T00:25:48.714Z,959.05
2022-09-16T00:26:48.759Z,958.98
2022-09-16T00:27:48.699Z,958.96
2022-09-16T00:28:48.680Z,958.96
2022-09-16T00:29:48.673Z,959.00
2022-09-16T00:30:48.683Z,959.04
2022-09-16T00:31:49.342Z,959.05
2022-09-16T00:32:48.664Z,959.01
2022-09-16T00:33:48.636Z,959.02
2022-09-16T00:34:48.619Z,959.01
2022-09-16T00:35:48.592Z,959.06
2022-09-16T00:36:48.619Z,959.06
2022-09-16T00:37:48.594Z,959.04
2022-09-16T00:38:48.562Z,959.02
2022-09-16T00:39:48.662Z,959.03
2022-09-16T00:40:48.559Z,959.02
2022-09-16T00:41:48.554Z,959.00
2022-09-16T00:42:48.523Z,959.05
2022-09-16T00:43:48.536Z,959.02
2022-09-16T00:44:48.511Z,959.02
2022-09-16T00:45:48.487Z,959.03
2022-09-16T00:46:48.542Z,958.98
2022-09-16T00:47:48.470Z,959.04
2022-09-16T00:48:48.470Z,959.00
2022-09-16T00:49:48.495Z,959.06
2022-09-16T00:50:48.426Z,959.03
2022-09-16T00:51:48.425Z,959.09
2022-09-16T00:52:48.423Z,959.03
2022-09-16T00:53:48.397Z,959.02
2022-09-16T00:54:48.440Z,959.05
2022-09-16T00:55:48.374Z,959.05
2022-09-16T00:56:48.374Z,959.03
2022-09-16T00:57:48.370Z,959.02
2022-09-16T00:58:48.338Z,959.05
2022-09-16T00:59:48.345Z,958.98
2022-09-16T01:00:48.346Z,959.05
2022-09-16T01:01:48.377Z,958.96
2022-09-16T01:02:48.320Z,959.01
2022-09-16T01:03:48.297Z,959.02
2022-09-16T01:04:48.276Z,959.02
2022-09-16T01:05:48.279Z,959.04
2022-09-16T01:06:48.291Z,959.02
2022-09-16T01:07:48.238Z,959.09
2022-09-16T01:08:48.269Z,959.03
2022-09-16T01:09:48.240Z,959.01
2022-09-16T01:10:48.248Z,958.97
2022-09-16T01:11:48.187Z,958.94
2022-09-16T01:12:48.188Z,958.95
2022-09-16T01:13:48.175Z,958.92
2022-09-16T01:14:48.163Z,958.90
2022-09-16T01:15:48.165Z,958.91
2022-09-16T01:16:48.154Z,958.87
2022-09-16T01:17:48.121Z,958.92
2022-09-16T01:18:48.125Z,958.91
2022-09-16T01:19:48.132Z,958.91
2022-09-16T01:20:48.115Z,958.88
2022-09-16T01:21:48.118Z,958.85
2022-09-16T01:22:48.088Z,958.84
2022-09-16T01:23:48.116Z,958.83
2022-09-16T01:24:48.046Z,958.86
2022-09-16T01:25:48.046Z,958.87
2022-09-16T01:26:48.053Z,958.88
2022-09-16T01:27:48.025Z,958.88
2022-09-16T01:28:47.995Z,958.90
2022-09-16T01:29:47.994Z,958.91
2022-09-16T01:30:47.989Z,958.88
2022-09-16T01:31:48.028Z,958.92
2022-09-16T01:32:47.958Z,958.94
2022-09-16T01:33:47.965Z,958.88
2022-09-16T01:34:47.969Z,958.90
2022-09-16T01:35:47.934Z,958.91
2022-09-16T01:36:47.921Z,958.88
2022-09-16T01:37:47.918Z,958.87
2022-09-16T01:38:47.921Z,958.90
2022-09-16T01:39:47.978Z,958.85
2022-09-16T01:40:47.896Z,958.89
2022-09-16T01:41:47.872Z,958.92
2022-09-16T01:42:47.842Z,958.89
2022-09-16T01:43:47.828Z,958.86
2022-09-16T01:44:47.837Z,958.88
2022-09-16T01:45:47.827Z,958.88
2022-09-16T01:46:47.941Z,958.84
2022-09-16T01:47:47.789Z,958.82
2022-09-16T01:48:53.016Z,958.84
2022-09-16T01:49:48.785Z,958.84
2022-09-16T01:50:47.775Z,958.78
2022-09-16T01:51:47.780Z,958.77
2022-09-16T01:52:47.724Z,958.79
2022-09-16T01:53:47.749Z,958.77
2022-09-16T01:54:47.701Z,958.82
2022-09-16T01:55:47.703Z,958.81
2022-09-16T01:56:47.710Z,958.81
2022-09-16T01:57:47.679Z,958.85
2022-09-16T01:58:47.663Z,958.82
2022-09-16T01:59:47.657Z,958.84
2022-09-16T02:00:47.674Z,958.82
2022-09-16T02:01:47.780Z,958.82
2022-09-16T02:02:47.684Z,958.88
2022-09-16T02:03:47.646Z,958.85
2022-09-16T02:04:47.598Z,958.83
2022-09-16T02:05:47.599Z,958.83
2022-09-16T02:06:47.574Z,958.84
2022-09-16T02:07:47.569Z,958.76
2022-09-16T02:08:47.603Z,958.77
2022-09-16T02:09:47.555Z,958.74
2022-09-16T02:10:47.538Z,958.76
2022-09-16T02:11:47.542Z,958.76
2022-09-16T02:12:47.514Z,958.76
2022-09-16T02:13:47.521Z,958.76
2022-09-16T02:14:47.494Z,958.74
2022-09-16T02:15:47.486Z,958.76
2022-09-16T02:16:47.477Z,958.77
2022-09-16T02:17:47.484Z,958.77
2022-09-16T02:18:47.450Z,958.76
2022-09-16T02:19:47.422Z,958.70
2022-09-16T02:20:47.424Z,958.74
2022-09-16T02:21:47.408Z,958.77
2022-09-16T02:22:47.421Z,958.76
2022-09-16T02:23:47.445Z,958.75
2022-09-16T02:24:47.378Z,958.73
2022-09-16T02:25:47.392Z,958.71
2022-09-16T02:26:47.341Z,958.72
2022-09-16T02:27:47.347Z,958.77
2022-09-16T02:28:47.318Z,958.77
2022-09-16T02:29:47.326Z,958.75
2022-09-16T02:30:47.328Z,958.79
2022-09-16T02:31:47.296Z,958.78
2022-09-16T02:32:47.280Z,958.71
2022-09-16T02:33:47.273Z,958.74
2022-09-16T02:34:47.293Z,958.73
2022-09-16T02:35:47.285Z,958.71
2022-09-16T02:36:47.233Z,958.75
2022-09-16T02:37:47.241Z,958.74
2022-09-16T02:38:47.287Z,958.73
2022-09-16T02:39:47.245Z,958.79
2022-09-16T02:40:47.191Z,958.79
2022-09-16T02:41:47.188Z,958.80
2022-09-16T02:42:47.168Z,958.79
2022-09-16T02:43:47.151Z,958.83
2022-09-16T02:44:47.162Z,958.79
2022-09-16T02:45:47.126Z,958.80
2022-09-16T02:46:47.273Z,958.80
2022-09-16T02:47:47.136Z,958.85
2022-09-16T02:48:47.105Z,958.79
2022-09-16T02:49:47.089Z,958.80
2022-09-16T02:50:47.102Z,958.75
2022-09-16T02:51:47.062Z,958.75
2022-09-16T02:52:47.158Z,958.72
2022-09-16T02:53:47.141Z,958.79
2022-09-16T02:54:47.026Z,958.79
2022-09-16T02:55:47.032Z,958.73
2022-09-16T02:56:47.000Z,958.77
2022-09-16T02:57:47.019Z,958.72
2022-09-16T02:58:47.008Z,958.72
2022-09-16T02:59:46.983Z,958.70
2022-09-16T03:00:46.962Z,958.73
2022-09-16T03:01:47.071Z,958.74
2022-09-16T03:02:46.976Z,958.69
2022-09-16T03:03:46.943Z,958.74
2022-09-16T03:04:46.933Z,958.73
2022-09-16T03:05:46.919Z,958.71
2022-09-16T03:06:46.899Z,958.71
2022-09-16T03:07:46.896Z,958.67
2022-09-16T03:08:46.908Z,958.68
2022-09-16T03:09:46.911Z,958.71
2022-09-16T03:10:46.848Z,958.70
2022-09-16T03:11:46.845Z,958.74
2022-09-16T03:12:46.827Z,958.71
2022-09-16T03:13:46.828Z,958.71
2022-09-16T03:14:46.801Z,958.67
2022-09-16T03:15:46.947Z,958.64
2022-09-16T03:16:46.808Z,958.65
2022-09-16T03:17:46.773Z,958.62
2022-09-16T03:18:46.778Z,958.61
2022-09-16T03:19:46.744Z,958.67
2022-09-16T03:20:46.747Z,958.63
2022-09-16T03:21:46.723Z,958.66
2022-09-16T03:22:46.727Z,958.64
2022-09-16T03:23:46.773Z,958.63
2022-09-16T03:24:46.721Z,958.62
2022-09-16T03:25:46.690Z,958.62
2022-09-16T03:26:46.673Z,958.62
2022-09-16T03:27:46.657Z,958.58
2022-09-16T03:28:46.643Z,958.64
2022-09-16T03:29:46.663Z,958.59
2022-09-16T03:30:46.669Z,958.57
2022-09-16T03:31:46.617Z,958.58
2022-09-16T03:32:46.624Z,958.56
2022-09-16T03:33:46.588Z,958.61
2022-09-16T03:34:46.590Z,958.57
2022-09-16T03:35:46.582Z,958.55
2022-09-16T03:36:46.554Z,958.56
2022-09-16T03:37:46.561Z,958.57
2022-09-16T03:38:46.656Z,958.56
2022-09-16T03:39:46.571Z,958.54
2022-09-16T03:40:46.521Z,958.58
2022-09-16T03:41:46.494Z,958.53
2022-09-16T03:42:46.502Z,958.48
2022-09-16T03:43:46.494Z,958.49
2022-09-16T03:44:46.492Z,958.48
2022-09-16T03:45:46.469Z,958.44
2022-09-16T03:46:46.448Z,958.43
2022-09-16T03:47:46.466Z,958.44
2022-09-16T03:48:46.428Z,958.47
2022-09-16T03:49:46.435Z,958.44
2022-09-16T03:50:46.425Z,958.41
2022-09-16T03:51:46.391Z,958.44
2022-09-16T03:52:46.384Z,958.42
2022-09-16T03:53:46.359Z,958.43
2022-09-16T03:54:46.364Z,958.43
2022-09-16T03:55:46.371Z,958.46
2022-09-16T03:56:46.334Z,958.39
2022-09-16T03:57:46.331Z,958.37
2022-09-16T03:58:46.303Z,958.42
2022-09-16T03:59:46.296Z,958.38
2022-09-16T04:00:46.309Z,958.38
2022-09-16T04:01:46.346Z,958.46
2022-09-16T04:02:46.315Z,958.41
2022-09-16T04:03:46.278Z,958.42
2022-09-16T04:04:46.235Z,958.43
2022-09-16T04:05:46.236Z,958.44
2022-09-16T04:06:46.242Z,958.46
2022-09-16T04:07:46.217Z,958.42
2022-09-16T04:08:46.202Z,958.45
2022-09-16T04:09:46.206Z,958.42
2022-09-16T04:10:46.168Z,958.40
2022-09-16T04:11:46.173Z,958.40
2022-09-16T04:12:46.149Z,958.43
2022-09-16T04:13:46.133Z,958.47
2022-09-16T04:14:46.128Z,958.43
2022-09-16T04:15:46.221Z,958.44
2022-09-16T04:16:46.105Z,958.47
2022-09-16T04:17:46.126Z,958.45
2022-09-16T04:18:46.111Z,958.48
2022-09-16T04:19:46.076Z,958.44
2022-09-16T04:20:46.068Z,958.48
2022-09-16T04:21:46.046Z,958.46
2022-09-16T04:22:46.044Z,958.49
2022-09-16T04:23:46.056Z,958.47
2022-09-16T04:24:46.010Z,958.41
2022-09-16T04:25:46.013Z,958.45
2022-09-16T04:26:46.011Z,958.47
2022-09-16T04:27:45.980Z,958.47
2022-09-16T04:28:45.980Z,958.49
2022-09-16T04:29:45.989Z,958.46
2022-09-16T04:30:45.979Z,958.49
2022-09-16T04:31:45.940Z,958.54
2022-09-16T04:32:45.963Z,958.54
2022-09-16T04:33:45.933Z,958.59
2022-09-16T04:34:45.917Z,958.55
2022-09-16T04:35:45.918Z,958.51
2022-09-16T04:36:45.925Z,958.53
2022-09-16T04:37:45.879Z,958.53
2022-09-16T04:38:46.005Z,958.55
2022-09-16T04:39:45.853Z,958.57
2022-09-16T04:40:45.853Z,958.60
2022-09-16T04:41:45.818Z,958.63
2022-09-16T04:42:45.824Z,958.62
2022-09-16T04:43:45.813Z,958.62
2022-09-16T04:44:45.786Z,958.64
2022-09-16T04:45:45.779Z,958.71
2022-09-16T04:46:45.798Z,958.66
2022-09-16T04:47:45.767Z,958.72
2022-09-16T04:48:45.751Z,958.65
2022-09-16T04:49:45.748Z,958.63
2022-09-16T04:50:45.735Z,958.65
2022-09-16T04:51:45.719Z,958.68
2022-09-16T04:52:45.730Z,958.67
2022-09-16T04:53:45.693Z,958.66
2022-09-16T04:54:45.688Z,958.65
2022-09-16T04:55:45.704Z,958.71
2022-09-16T04:56:45.673Z,958.69
2022-09-16T04:57:45.656Z,958.68
2022-09-16T04:58:45.672Z,958.68
2022-09-16T04:59:45.642Z,958.71
2022-09-16T05:00:45.640Z,958.63
2022-09-16T05:01:46.454Z,958.68
2022-09-16T05:02:45.600Z,958.70
2022-09-16T05:03:45.736Z,958.71
2022-09-16T05:04:45.569Z,958.75
2022-09-16T05:05:45.602Z,958.68
2022-09-16T05:06:45.568Z,958.69
2022-09-16T05:07:45.532Z,958.68
2022-09-16T05:08:45.526Z,958.68
2022-09-16T05:09:45.511Z,958.68
2022-09-16T05:10:45.503Z,958.70
2022-09-16T05:11:45.518Z,958.75
2022-09-16T05:12:49.322Z,958.74
2022-09-16T05:13:45.471Z,958.74
2022-09-16T05:14:45.462Z,958.75
2022-09-16T05:15:50.289Z,958.78
2022-09-16T05:16:46.457Z,958.78
2022-09-16T05:17:51.260Z,958.71
2022-09-16T05:18:46.435Z,958.70
2022-09-16T05:19:45.409Z,958.68
2022-09-16T05:20:45.409Z,958.61
2022-09-16T05:21:45.501Z,958.64
2022-09-16T05:22:45.387Z,958.61
2022-09-16T05:23:47.015Z,958.62
2022-09-16T05:24:45.357Z,958.66
2022-09-16T05:25:45.347Z,958.66
2022-09-16T05:26:45.344Z,958.68
2022-09-16T05:27:45.349Z,958.65
2022-09-16T05:28:45.309Z,958.65
2022-09-16T05:29:45.316Z,958.63
2022-09-16T05:30:45.368Z,958.66
2022-09-16T05:31:45.291Z,958.73
2022-09-16T05:32:45.294Z,958.75
2022-09-16T05:33:45.252Z,958.69
2022-09-16T05:34:45.254Z,958.68
2022-09-16T05:35:45.258Z,958.77
2022-09-16T05:36:45.220Z,958.75
2022-09-16T05:37:45.316Z,958.76
2022-09-16T05:39:04.636Z,958.74
2022-09-16T05:39:46.174Z,958.73
2022-09-16T05:40:45.163Z,958.73
2022-09-16T05:41:45.159Z,958.71
2022-09-16T05:42:45.157Z,958.74
2022-09-16T05:43:45.164Z,958.69
2022-09-16T05:44:53.100Z,958.70
2022-09-16T05:45:45.159Z,958.72
2022-09-16T05:46:45.096Z,958.66
2022-09-16T05:47:45.097Z,958.67
2022-09-16T05:48:45.087Z,958.67
2022-09-16T05:49:45.093Z,958.69
2022-09-16T05:50:45.074Z,958.70
2022-09-16T05:51:45.080Z,958.65
2022-09-16T05:52:45.028Z,958.66
2022-09-16T05:53:45.139Z,958.66
2022-09-16T05:54:45.028Z,958.64
2022-09-16T05:55:44.994Z,958.70
2022-09-16T05:56:45.039Z,958.66
2022-09-16T05:57:44.973Z,958.63
2022-09-16T05:58:44.961Z,958.61
2022-09-16T05:59:44.967Z,958.66
2022-09-16T06:00:44.961Z,958.67
2022-09-16T06:01:45.034Z,958.65
2022-09-16T06:02:45.015Z,958.68
2022-09-16T06:03:44.909Z,958.66
2022-09-16T06:04:44.899Z,958.69
2022-09-16T06:05:45.920Z,958.68
2022-09-16T06:06:44.872Z,958.64
2022-09-16T06:07:44.872Z,958.71
2022-09-16T06:08:44.855Z,958.68
2022-09-16T06:09:44.950Z,958.74
2022-09-16T06:10:44.846Z,958.72
2022-09-16T06:11:44.848Z,958.71
2022-09-16T06:12:44.804Z,958.69
2022-09-16T06:13:44.799Z,958.68
2022-09-16T06:14:44.782Z,958.69
2022-09-16T06:15:44.820Z,958.73
2022-09-16T06:16:44.802Z,958.61
2022-09-16T06:17:44.748Z,958.66
2022-09-16T06:18:44.795Z,958.63
2022-09-16T06:19:44.752Z,958.59
2022-09-16T06:20:44.715Z,958.59
2022-09-16T06:21:44.710Z,958.57
2022-09-16T06:22:44.718Z,958.54
2022-09-16T06:23:44.682Z,958.53
2022-09-16T06:24:44.688Z,958.59
2022-09-16T06:25:44.767Z,958.50
2022-09-16T06:26:44.647Z,958.51
2022-09-16T06:27:44.651Z,958.53
2022-09-16T06:28:44.641Z,958.54
2022-09-16T06:29:44.624Z,958.50
2022-09-16T06:30:44.687Z,958.51
2022-09-16T06:31:44.614Z,958.52
2022-09-16T06:32:44.581Z,958.50
2022-09-16T06:33:44.639Z,958.49
2022-09-16T06:34:44.592Z,958.51
2022-09-16T06:35:44.563Z,958.47
2022-09-16T06:36:45.635Z,958.50
2022-09-16T06:37:44.559Z,958.50
2022-09-16T06:38:44.519Z,958.53
2022-09-16T06:39:44.518Z,958.57
2022-09-16T06:40:44.496Z,958.54
2022-09-16T06:41:44.621Z,958.60
2022-09-16T06:42:44.508Z,958.59
2022-09-16T06:43:44.456Z,958.51
2022-09-16T06:44:44.456Z,958.51
2022-09-16T06:45:44.510Z,958.50
2022-09-16T06:46:44.434Z,958.52
2022-09-16T06:47:44.433Z,958.52
2022-09-16T06:48:44.471Z,958.53
2022-09-16T06:49:44.390Z,958.58
2022-09-16T06:50:44.400Z,958.54
2022-09-16T06:51:44.391Z,958.54
2022-09-16T06:52:44.402Z,958.57
2022-09-16T06:53:44.372Z,958.61
2022-09-16T06:54:44.334Z,958.56
2022-09-16T06:55:44.328Z,958.59
2022-09-16T06:56:44.317Z,958.58
2022-09-16T06:57:44.416Z,958.62
2022-09-16T06:58:44.302Z,958.60
2022-09-16T06:59:44.275Z,958.65
2022-09-16T07:00:44.269Z,958.59
2022-09-16T07:01:44.302Z,958.54
2022-09-16T07:02:44.377Z,958.55
2022-09-16T07:03:44.262Z,958.48
2022-09-16T07:04:44.245Z,958.51
2022-09-16T07:05:44.207Z,958.46
2022-09-16T07:07:08.262Z,958.51
2022-09-16T07:07:45.233Z,958.46
2022-09-16T07:08:44.204Z,958.48
2022-09-16T07:09:44.184Z,958.48
2022-09-16T07:10:44.185Z,958.47
2022-09-16T07:11:44.146Z,958.45
2022-09-16T07:12:44.145Z,958.46
2022-09-16T07:13:44.314Z,958.51
2022-09-16T07:14:44.117Z,958.46
2022-09-16T07:16:02.600Z,958.49
2022-09-16T07:16:45.191Z,958.50
2022-09-16T07:17:44.075Z,958.41
2022-09-16T07:18:44.079Z,958.43
2022-09-16T07:19:44.083Z,958.42
2022-09-16T07:20:44.047Z,958.38
2022-09-16T07:21:44.056Z,958.35
2022-09-16T07:22:44.015Z,958.37
2022-09-16T07:23:44.019Z,958.39
2022-09-16T07:24:44.028Z,958.38
2022-09-16T07:25:43.980Z,958.38
2022-09-16T07:26:43.987Z,958.36
2022-09-16T07:27:43.957Z,958.36
2022-09-16T07:28:44.023Z,958.36
2022-09-16T07:29:44.067Z,958.43
2022-09-16T07:30:44.017Z,958.44
2022-09-16T07:31:43.952Z,958.42
2022-09-16T07:32:43.919Z,958.45
2022-09-16T07:33:43.985Z,958.40
2022-09-16T07:34:43.888Z,958.41
2022-09-16T07:35:43.886Z,958.42
2022-09-16T07:36:43.890Z,958.41
2022-09-16T07:37:43.882Z,958.45
2022-09-16T07:38:43.949Z,958.44
2022-09-16T07:39:43.976Z,958.44
2022-09-16T07:40:43.821Z,958.44
2022-09-16T07:41:43.830Z,958.48
2022-09-16T07:42:43.804Z,958.46
2022-09-16T07:43:43.877Z,958.48
2022-09-16T07:44:43.768Z,958.50
2022-09-16T07:45:43.893Z,958.50
2022-09-16T07:46:43.763Z,958.49
2022-09-16T07:47:43.749Z,958.43
2022-09-16T07:48:43.779Z,958.50
2022-09-16T07:49:43.742Z,958.50
2022-09-16T07:50:43.697Z,958.52
2022-09-16T07:51:43.749Z,958.54
2022-09-16T07:53:43.729Z,958.48
2022-09-16T07:54:43.664Z,958.51
2022-09-16T07:55:43.673Z,958.53
2022-09-16T07:56:43.628Z,958.50
2022-09-16T07:57:43.633Z,958.52
2022-09-16T07:58:43.622Z,958.54
2022-09-16T07:59:43.629Z,958.56
2022-09-16T08:00:43.595Z,958.53
2022-09-16T08:01:43.937Z,958.58
2022-09-16T08:02:43.652Z,958.52
2022-09-16T08:03:43.573Z,958.53
2022-09-16T08:04:43.569Z,958.49
2022-09-16T08:05:43.549Z,958.50
2022-09-16T08:06:43.531Z,958.52
2022-09-16T08:07:43.506Z,958.50
2022-09-16T08:08:43.494Z,958.48
2022-09-16T08:09:48.587Z,958.49
2022-09-16T08:10:44.479Z,958.45
2022-09-16T08:11:43.475Z,958.47
2022-09-16T08:12:43.450Z,958.51
2022-09-16T08:13:43.628Z,958.55
2022-09-16T08:14:43.428Z,958.58
2022-09-16T08:15:43.443Z,958.60
2022-09-16T08:16:43.511Z,958.61
2022-09-16T08:17:43.529Z,958.65
2022-09-16T08:18:43.417Z,958.67
2022-09-16T08:19:43.371Z,958.70
2022-09-16T08:20:43.367Z,958.76
2022-09-16T08:21:43.374Z,958.73
2022-09-16T08:22:43.347Z,958.79
2022-09-16T08:23:43.346Z,958.74
2022-09-16T08:24:43.315Z,958.77
2022-09-16T08:25:43.309Z,958.75
2022-09-16T08:26:43.360Z,958.73
2022-09-16T08:27:43.486Z,958.69
2022-09-16T08:29:07.282Z,958.71
2022-09-16T08:29:44.263Z,958.73
2022-09-16T08:30:43.293Z,958.74
2022-09-16T08:31:43.287Z,958.73
2022-09-16T08:32:43.252Z,958.71
2022-09-16T08:33:43.356Z,958.67
2022-09-16T08:34:43.224Z,958.66
2022-09-16T08:35:43.192Z,958.65
2022-09-16T08:36:43.184Z,958.61
2022-09-16T08:37:45.898Z,958.64
2022-09-16T08:38:44.218Z,958.59
2022-09-16T08:39:43.163Z,958.59
2022-09-16T08:40:43.149Z,958.64
2022-09-16T08:41:43.195Z,958.60
2022-09-16T08:42:43.120Z,958.66
2022-09-16T08:43:43.305Z,958.69
2022-09-16T08:44:43.123Z,958.71
2022-09-16T08:45:43.162Z,958.74
2022-09-16T08:46:43.069Z,958.81
2022-09-16T08:47:43.063Z,958.77
2022-09-16T08:48:43.056Z,958.75
2022-09-16T08:49:45.754Z,958.70
2022-09-16T08:50:43.059Z,958.72
2022-09-16T08:51:43.035Z,958.73
2022-09-16T08:52:43.038Z,958.68
2022-09-16T08:53:42.989Z,958.69
2022-09-16T08:54:43.005Z,958.64
2022-09-16T08:55:43.014Z,958.65
2022-09-16T08:56:44.992Z,958.65
2022-09-16T08:57:42.971Z,958.68
2022-09-16T08:58:42.972Z,958.68
2022-09-16T08:59:43.439Z,958.65
2022-09-16T09:00:43.017Z,958.69
2022-09-16T09:01:43.290Z,958.69
2022-09-16T09:02:42.940Z,958.71
2022-09-16T09:03:42.877Z,958.68
2022-09-16T09:04:42.867Z,958.74
2022-09-16T09:05:42.995Z,958.67
2022-09-16T09:06:42.871Z,958.68
2022-09-16T09:07:42.842Z,958.69
2022-09-16T09:08:42.845Z,958.67
2022-09-16T09:09:42.862Z,958.65
2022-09-16T09:10:42.817Z,958.72
2022-09-16T09:11:42.814Z,958.69
2022-09-16T09:12:43.248Z,958.70
2022-09-16T09:13:42.786Z,958.72
2022-09-16T09:14:42.751Z,958.73
2022-09-16T09:15:42.742Z,958.71
2022-09-16T09:16:42.868Z,958.71
2022-09-16T09:17:49.393Z,958.67
2022-09-16T09:18:43.761Z,958.64
2022-09-16T09:19:42.704Z,958.63
2022-09-16T09:20:42.682Z,958.63
2022-09-16T09:21:42.826Z,958.58
2022-09-16T09:22:44.670Z,958.56
2022-09-16T09:23:42.686Z,958.56
2022-09-16T09:24:42.654Z,958.55
2022-09-16T09:25:42.668Z,958.56
2022-09-16T09:26:42.617Z,958.58
2022-09-16T09:27:42.619Z,958.53
2022-09-16T09:28:42.618Z,958.54
2022-09-16T09:29:42.588Z,958.54
2022-09-16T09:30:42.591Z,958.59
2022-09-16T09:31:43.502Z,958.58
2022-09-16T09:32:49.347Z,958.60
2022-09-16T09:33:46.679Z,958.54
2022-09-16T09:34:42.609Z,958.53
2022-09-16T09:35:42.538Z,958.59
2022-09-16T09:36:42.521Z,958.58
2022-09-16T09:37:42.654Z,958.56
2022-09-16T09:38:42.481Z,958.57
2022-09-16T09:39:42.495Z,958.52
2022-09-16T09:40:42.495Z,958.50
2022-09-16T09:41:42.464Z,958.49
2022-09-16T09:42:42.472Z,958.50
2022-09-16T09:43:42.428Z,958.48
2022-09-16T09:44:42.428Z,958.50
2022-09-16T09:45:42.474Z,958.42
2022-09-16T09:46:42.416Z,958.51
2022-09-16T09:47:42.396Z,958.55
2022-09-16T09:48:47.523Z,958.49
2022-09-16T09:49:42.360Z,958.52
2022-09-16T09:50:42.362Z,958.55
2022-09-16T09:51:42.356Z,958.55
2022-09-16T09:52:42.339Z,958.58
2022-09-16T09:53:42.478Z,958.66
2022-09-16T09:54:42.299Z,958.57
2022-09-16T09:55:42.294Z,958.63
2022-09-16T09:56:42.358Z,958.62
2022-09-16T09:57:42.295Z,958.62
2022-09-16T09:58:42.270Z,958.64
2022-09-16T09:59:42.252Z,958.62
2022-09-16T10:00:42.288Z,958.61
2022-09-16T10:01:42.297Z,958.63
2022-09-16T10:02:44.977Z,958.57
2022-09-16T10:03:43.225Z,958.59
2022-09-16T10:04:42.196Z,958.60
2022-09-16T10:05:42.205Z,958.62
2022-09-16T10:06:42.165Z,958.54
2022-09-16T10:07:42.165Z,958.58
2022-09-16T10:08:42.183Z,958.57
2022-09-16T10:09:42.262Z,958.58
2022-09-16T10:10:42.143Z,958.59
2022-09-16T10:11:42.109Z,958.56
2022-09-16T10:12:42.150Z,958.59
2022-09-16T10:13:42.101Z,958.60
2022-09-16T10:14:42.078Z,958.55
2022-09-16T10:15:42.096Z,958.58
2022-09-16T10:16:42.103Z,958.59
2022-09-16T10:17:42.041Z,958.63
2022-09-16T10:18:42.029Z,958.60
2022-09-16T10:19:42.043Z,958.58
2022-09-16T10:20:42.011Z,958.61
2022-09-16T10:21:42.019Z,958.60
2022-09-16T10:22:41.985Z,958.60
2022-09-16T10:23:41.975Z,958.58
2022-09-16T10:24:41.977Z,958.58
2022-09-16T10:25:42.081Z,958.58
2022-09-16T10:26:41.953Z,958.58
2022-09-16T10:27:41.956Z,958.61
2022-09-16T10:28:41.954Z,958.62
2022-09-16T10:29:41.912Z,958.54
2022-09-16T10:30:41.905Z,958.53
2022-09-16T10:31:41.965Z,958.55
2022-09-16T10:32:41.890Z,958.56
2022-09-16T10:33:41.860Z,958.53
2022-09-16T10:34:41.891Z,958.56
2022-09-16T10:35:41.851Z,958.55
2022-09-16T10:36:41.845Z,958.59
2022-09-16T10:37:41.824Z,958.50
2022-09-16T10:38:41.824Z,958.53
2022-09-16T10:39:41.793Z,958.48
2022-09-16T10:40:41.787Z,958.48
2022-09-16T10:41:41.928Z,958.48
2022-09-16T10:42:41.789Z,958.47
2022-09-16T10:43:41.793Z,958.48
2022-09-16T10:44:41.734Z,958.45
2022-09-16T10:45:41.729Z,958.49
2022-09-16T10:46:41.800Z,958.47
2022-09-16T10:47:41.720Z,958.47
2022-09-16T10:48:41.694Z,958.44
2022-09-16T10:49:41.687Z,958.44
2022-09-16T10:50:41.668Z,958.45
2022-09-16T10:51:41.661Z,958.49
2022-09-16T10:52:41.668Z,958.39
2022-09-16T10:53:44.469Z,958.44
2022-09-16T10:54:41.633Z,958.46
2022-09-16T10:55:41.629Z,958.46
2022-09-16T10:56:41.636Z,958.43
2022-09-16T10:57:41.719Z,958.43
2022-09-16T10:58:41.586Z,958.44
2022-09-16T10:59:42.500Z,958.47
2022-09-16T11:00:45.621Z,958.45
2022-09-16T11:01:44.588Z,958.50
2022-09-16T11:02:41.534Z,958.51
2022-09-16T11:03:41.523Z,958.47
2022-09-16T11:04:41.522Z,958.47
2022-09-16T11:05:41.526Z,958.45
2022-09-16T11:06:41.509Z,958.49
2022-09-16T11:07:41.482Z,958.52
2022-09-16T11:08:41.463Z,958.52
2022-09-16T11:09:41.476Z,958.59
2022-09-16T11:10:41.461Z,958.56
2022-09-16T11:11:41.442Z,958.62
2022-09-16T11:12:41.432Z,958.69
2022-09-16T11:13:41.537Z,958.69
2022-09-16T11:14:41.404Z,958.71
2022-09-16T11:15:41.404Z,958.74
2022-09-16T11:16:41.443Z,958.71
2022-09-16T11:17:41.406Z,958.68
2022-09-16T11:18:41.375Z,958.65
2022-09-16T11:19:41.340Z,958.69
2022-09-16T11:20:41.348Z,958.68
2022-09-16T11:21:41.321Z,958.70
2022-09-16T11:22:41.326Z,958.69
2022-09-16T11:23:41.388Z,958.69
2022-09-16T11:24:41.317Z,958.72
2022-09-16T11:25:41.273Z,958.72
2022-09-16T11:26:41.281Z,958.72
2022-09-16T11:27:41.267Z,958.75
2022-09-16T11:28:41.256Z,958.67
2022-09-16T11:29:41.358Z,958.71
2022-09-16T11:30:41.232Z,958.64
2022-09-16T11:31:41.335Z,958.62
2022-09-16T11:32:41.349Z,958.66
2022-09-16T11:33:41.191Z,958.66
2022-09-16T11:34:41.210Z,958.67
2022-09-16T11:35:41.186Z,958.70
2022-09-16T11:36:41.160Z,958.69
2022-09-16T11:37:41.141Z,958.65
2022-09-16T11:38:43.885Z,958.63
2022-09-16T11:39:42.171Z,958.64
2022-09-16T11:40:41.158Z,958.59
2022-09-16T11:41:41.100Z,958.62
2022-09-16T11:42:41.083Z,958.60
2022-09-16T11:43:41.074Z,958.53
2022-09-16T11:44:41.065Z,958.52
2022-09-16T11:45:41.220Z,958.53
2022-09-16T11:46:41.103Z,958.51
2022-09-16T11:47:41.102Z,958.58
2022-09-16T11:48:41.024Z,958.60
2022-09-16T11:49:41.022Z,958.56
2022-09-16T11:50:41.021Z,958.54
2022-09-16T11:51:41.001Z,958.58
2022-09-16T11:52:40.999Z,958.66
2022-09-16T11:53:43.730Z,958.64
2022-09-16T11:54:40.957Z,958.65
2022-09-16T11:55:40.963Z,958.65
2022-09-16T11:56:40.934Z,958.64
2022-09-16T11:57:40.931Z,958.66
2022-09-16T11:58:40.905Z,958.63
2022-09-16T11:59:40.919Z,958.65
2022-09-16T12:00:40.896Z,958.65
2022-09-16T12:01:41.064Z,958.62
2022-09-16T12:02:40.948Z,958.66
2022-09-16T12:03:40.848Z,958.66
2022-09-16T12:04:40.836Z,958.66
2022-09-16T12:05:40.827Z,958.69
2022-09-16T12:06:40.829Z,958.73
2022-09-16T12:07:40.835Z,958.74
2022-09-16T12:08:40.801Z,958.75
2022-09-16T12:09:40.782Z,958.81
2022-09-16T12:10:40.787Z,958.79
2022-09-16T12:11:40.762Z,958.76
2022-09-16T12:12:40.774Z,958.80
2022-09-16T12:13:40.763Z,958.78
2022-09-16T12:14:40.749Z,958.81
2022-09-16T12:15:40.712Z,958.77
2022-09-16T12:16:40.727Z,958.82
2022-09-16T12:17:40.836Z,958.77
2022-09-16T12:18:40.693Z,958.81
2022-09-16T12:19:40.683Z,958.81
2022-09-16T12:20:40.660Z,958.85
2022-09-16T12:21:40.646Z,958.84
2022-09-16T12:22:40.641Z,958.87
2022-09-16T12:23:40.657Z,958.80
2022-09-16T12:24:40.620Z,958.77
2022-09-16T12:25:45.460Z,958.80
2022-09-16T12:26:41.614Z,958.76
2022-09-16T12:27:40.595Z,958.77
2022-09-16T12:28:40.599Z,958.82
2022-09-16T12:29:40.562Z,958.83